Time;durP1;ratioP1;P1;durP2;ratioP2;P2;SDS_P1;SDS_P2;PMS_P1;PMS_P2;Temp;Humidity;BMP_temperature;BMP_pressure;BME280_temperature;BME280_humidity;BME280_pressure;Samples;Min_cycle;Max_cycle;Signal;HPM_P1;HPM_P2
2023/01/01 00:00:05;;;;;;;27.40;13.70;;;14.30;74.90;;;;;;4998310;28;20181;-91
2023/01/01 00:02:34;;;;;;;18.50;14.03;;;14.30;75.00;;;;;;4998396;28;20196;-91
2023/01/01 00:05:00;;;;;;;17.03;13.40;;;14.30;74.40;;;;;;4999653;28;20198;-92
2023/01/01 00:07:25;;;;;;;18.07;12.97;;;14.40;74.30;;;;;;4999649;28;20560;-91
2023/01/01 00:12:35;;;;;;;12.60;11.07;;;14.50;73.80;;;;;;5037991;22;20286;-89
2023/01/01 00:15:00;;;;;;;20.50;13.53;;;14.40;74.40;;;;;;5013127;28;20173;-88
2023/01/01 00:17:28;;;;;;;17.13;13.23;;;14.50;73.60;;;;;;4995671;28;20656;-89
2023/01/01 00:19:53;;;;;;;17.65;13.93;;;14.40;74.20;;;;;;4995820;28;20189;-89
2023/01/01 00:22:22;;;;;;;16.47;13.77;;;14.40;74.70;;;;;;4995579;28;20209;-89
2023/01/01 00:24:47;;;;;;;17.57;14.47;;;14.50;73.60;;;;;;4996086;28;20196;-89
2023/01/01 00:27:13;;;;;;;21.97;14.60;;;14.50;73.50;;;;;;4995483;28;20197;-89
2023/01/01 00:29:38;;;;;;;26.47;14.57;;;14.50;73.80;;;;;;4995500;28;20248;-89
2023/01/01 00:32:04;;;;;;;30.00;14.93;;;14.50;73.50;;;;;;4995962;28;20561;-91
2023/01/01 00:34:30;;;;;;;27.25;15.95;;;14.20;74.60;;;;;;4995874;28;20178;-89
2023/01/01 00:36:56;;;;;;;19.45;15.93;;;14.40;74.20;;;;;;4995665;28;20180;-88
2023/01/01 00:39:22;;;;;;;22.77;15.60;;;14.30;74.00;;;;;;4995445;28;20177;-89
2023/01/01 00:41:47;;;;;;;18.27;16.33;;;14.50;73.80;;;;;;4995632;28;20247;-90
2023/01/01 00:44:13;;;;;;;24.77;15.63;;;14.40;73.80;;;;;;5014230;28;20259;-90
2023/01/01 00:46:38;;;;;;;19.48;15.13;;;14.40;74.20;;;;;;4998945;28;20177;-90
2023/01/01 00:49:04;;;;;;;18.20;14.77;;;14.50;73.90;;;;;;4998833;28;20762;-90
2023/01/01 00:51:30;;;;;;;17.57;14.03;;;14.60;73.40;;;;;;4999500;28;20220;-88
2023/01/01 00:53:55;;;;;;;26.77;14.10;;;14.40;74.10;;;;;;4998841;28;20209;-90
2023/01/01 00:56:21;;;;;;;22.90;14.85;;;14.50;73.20;;;;;;4998721;28;20181;-91
2023/01/01 00:58:46;;;;;;;22.95;15.02;;;14.50;73.70;;;;;;4999035;28;20213;-91
2023/01/01 01:01:12;;;;;;;20.47;14.63;;;14.50;73.60;;;;;;4999397;28;20201;-92
2023/01/01 01:03:53;;;;;;;22.60;14.47;;;14.50;74.00;;;;;;5006318;28;20634;-92
2023/01/01 01:06:40;;;;;;;19.77;13.57;;;14.30;74.70;;;;;;5004643;28;20176;-90
2023/01/01 01:09:17;;;;;;;20.27;14.50;;;14.30;74.70;;;;;;5005392;28;20631;-92
2023/01/01 01:16:47;;;;;;;15.57;13.47;;;14.40;73.60;;;;;;5016312;28;20217;-90
2023/01/01 01:19:17;;;;;;;14.40;13.00;;;14.40;74.10;;;;;;4999420;28;20200;-91
2023/01/01 01:21:46;;;;;;;20.63;14.80;;;14.60;73.00;;;;;;4998855;28;20197;-91
2023/01/01 01:24:11;;;;;;;26.60;14.48;;;14.40;74.00;;;;;;4999092;28;20647;-91
2023/01/01 01:27:03;;;;;;;24.47;14.83;;;14.40;74.10;;;;;;4998998;28;20177;-92
2023/01/01 01:30:01;;;;;;;14.77;13.20;;;14.50;73.90;;;;;;4999052;28;20169;-92
2023/01/01 01:32:36;;;;;;;27.67;14.50;;;14.50;74.00;;;;;;4992985;28;20288;-91
2023/01/01 01:35:37;;;;;;;21.30;13.57;;;14.40;74.40;;;;;;4998841;28;20263;-91
2023/01/01 01:38:03;;;;;;;24.90;13.00;;;14.60;74.10;;;;;;5000397;28;20216;-91
2023/01/01 01:40:31;;;;;;;19.70;13.27;;;14.40;74.50;;;;;;5016795;28;20177;-90
2023/01/01 01:46:55;;;;;;;23.87;13.13;;;14.50;74.20;;;;;;5016051;28;20169;-90
2023/01/01 01:56:14;;;;;;;22.13;13.43;;;14.40;75.00;;;;;;5015655;28;20157;-90
2023/01/01 01:58:40;;;;;;;17.63;13.37;;;14.50;73.80;;;;;;4998521;28;20174;-92
2023/01/01 02:01:06;;;;;;;21.97;13.20;;;14.60;74.00;;;;;;4998277;28;20177;-90
2023/01/01 02:03:58;;;;;;;16.27;12.43;;;14.50;73.80;;;;;;4997819;28;20683;-91
2023/01/01 02:06:26;;;;;;;16.50;12.20;;;14.40;74.10;;;;;;5015736;28;20164;-90
2023/01/01 02:08:52;;;;;;;23.03;12.47;;;14.70;73.40;;;;;;4998526;28;20268;-90
2023/01/01 02:11:18;;;;;;;20.43;14.60;;;14.60;73.30;;;;;;4999063;28;20201;-90
2023/01/01 02:13:43;;;;;;;20.03;13.60;;;14.40;74.10;;;;;;4999326;28;20268;-91
2023/01/01 02:16:47;;;;;;;17.63;14.40;;;14.40;74.10;;;;;;4999175;28;20554;-90
2023/01/01 02:19:50;;;;;;;27.47;13.80;;;14.40;74.20;;;;;;5015231;28;20541;-91
2023/01/01 02:22:31;;;;;;;16.13;12.33;;;14.40;74.40;;;;;;5031335;28;20204;-92
2023/01/01 02:25:23;;;;;;;14.90;12.23;;;14.60;73.20;;;;;;5005739;28;20162;-90
2023/01/01 02:28:13;;;;;;;20.47;12.77;;;14.60;73.50;;;;;;4997822;28;20265;-90
2023/01/01 02:30:43;;;;;;;14.73;13.30;;;14.60;73.60;;;;;;4997539;28;20201;-92
2023/01/01 02:33:13;;;;;;;15.50;13.88;;;14.40;74.20;;;;;;4997862;28;20755;-88
2023/01/01 02:35:49;;;;;;;20.57;14.60;;;14.50;74.10;;;;;;4997788;28;20169;-91
2023/01/01 02:38:22;;;;;;;19.60;14.33;;;14.50;74.10;;;;;;4999121;28;20165;-91
2023/01/01 02:40:56;;;;;;;18.33;13.50;;;14.30;74.80;;;;;;4997040;28;20169;-91
2023/01/01 02:43:21;;;;;;;18.05;14.43;;;14.30;74.90;;;;;;4997043;28;20207;-89
2023/01/01 02:45:47;;;;;;;23.67;14.93;;;14.30;74.70;;;;;;4996889;28;20177;-91
2023/01/01 02:48:41;;;;;;;14.00;12.70;;;14.30;74.60;;;;;;4996874;28;20178;-91
2023/01/01 02:51:33;;;;;;;21.53;14.77;;;14.50;74.10;;;;;;4997918;28;20208;-91
2023/01/01 02:54:17;;;;;;;25.23;15.57;;;14.40;74.60;;;;;;4996792;28;20555;-91
2023/01/01 02:56:47;;;;;;;25.70;16.97;;;14.30;75.20;;;;;;4997034;28;20268;-91
2023/01/01 03:02:19;;;;;;;17.87;15.20;;;14.50;74.90;;;;;;5014863;28;20228;-90
2023/01/01 03:04:53;;;;;;;25.67;17.07;;;14.50;74.40;;;;;;4996710;28;20181;-91
2023/01/01 03:07:19;;;;;;;21.57;17.80;;;14.70;74.20;;;;;;4995956;28;20200;-92
2023/01/01 03:10:01;;;;;;;17.93;16.13;;;14.50;74.90;;;;;;4996660;28;20233;-89
2023/01/01 03:12:38;;;;;;;23.33;17.77;;;14.50;74.70;;;;;;4997061;28;20192;-92
2023/01/01 03:15:29;;;;;;;21.88;18.65;;;14.40;75.30;;;;;;4996810;28;20232;-91
2023/01/01 03:18:07;;;;;;;22.33;17.77;;;14.30;75.60;;;;;;4997055;28;20169;-91
2023/01/01 03:20:38;;;;;;;25.47;17.10;;;14.30;76.00;;;;;;4997402;28;20201;-91
2023/01/01 03:23:08;;;;;;;25.87;18.23;;;14.10;76.70;;;;;;4996946;28;20197;-91
2023/01/01 03:25:39;;;;;;;25.83;17.73;;;14.20;76.60;;;;;;4996752;28;20173;-91
2023/01/01 03:28:13;;;;;;;23.60;16.20;;;14.20;76.30;;;;;;4996953;28;20166;-91
2023/01/01 03:30:41;;;;;;;18.43;16.47;;;14.30;75.50;;;;;;4996910;28;20578;-91
2023/01/01 03:33:21;;;;;;;23.57;17.77;;;14.30;75.50;;;;;;4996859;28;20193;-91
2023/01/01 03:35:59;;;;;;;23.20;17.83;;;14.20;76.30;;;;;;4996788;28;20165;-91
2023/01/01 03:38:30;;;;;;;25.87;18.83;;;14.40;75.30;;;;;;4997285;28;20165;-91
2023/01/01 03:41:02;;;;;;;21.60;18.07;;;14.30;75.90;;;;;;4996555;28;20627;-90
2023/01/01 03:43:44;;;;;;;20.07;16.07;;;14.20;76.20;;;;;;4996376;28;20296;-90
2023/01/01 03:46:13;;;;;;;26.93;18.83;;;14.30;76.10;;;;;;4996460;28;20169;-91
2023/01/01 03:48:59;;;;;;;31.70;16.50;;;14.20;76.40;;;;;;4997176;28;20239;-90
2023/01/01 03:51:55;;;;;;;34.67;17.77;;;14.20;75.80;;;;;;4996522;28;20197;-90
2023/01/01 03:54:37;;;;;;;24.57;16.13;;;14.20;76.10;;;;;;4996547;28;20221;-90
2023/01/01 03:57:43;;;;;;;25.57;17.77;;;14.30;76.10;;;;;;4997083;28;20162;-91
2023/01/01 04:00:15;;;;;;;23.13;16.40;;;14.20;76.10;;;;;;4996398;28;20166;-91
2023/01/01 04:03:02;;;;;;;24.95;16.92;;;14.40;75.10;;;;;;4996262;28;20696;-91
2023/01/01 04:05:29;;;;;;;24.10;17.27;;;14.30;75.50;;;;;;4996909;28;20215;-90
2023/01/01 04:07:56;;;;;;;24.67;16.17;;;14.20;76.30;;;;;;4996572;28;20316;-89
2023/01/01 04:10:23;;;;;;;30.27;18.70;;;14.00;77.10;;;;;;4996899;28;20215;-90
2023/01/01 04:12:51;;;;;;;26.13;17.13;;;14.20;76.40;;;;;;4996298;28;20236;-91
2023/01/01 04:15:18;;;;;;;16.57;14.37;;;14.10;76.80;;;;;;5013883;28;20190;-90
2023/01/01 04:17:44;;;;;;;21.13;14.97;;;14.00;76.90;;;;;;4996480;28;20173;-90
2023/01/01 04:20:11;;;;;;;27.77;16.80;;;14.20;76.40;;;;;;4999641;28;20240;-91
2023/01/01 04:22:36;;;;;;;26.47;17.03;;;14.00;77.00;;;;;;4999357;28;20733;-90
2023/01/01 04:25:03;;;;;;;21.53;14.77;;;13.90;77.60;;;;;;5017382;28;20177;-92
2023/01/01 04:27:28;;;;;;;22.47;15.67;;;13.90;77.40;;;;;;4999602;28;20189;-91
2023/01/01 04:29:54;;;;;;;15.67;12.87;;;14.00;77.00;;;;;;4999631;28;20211;-90
2023/01/01 04:32:20;;;;;;;19.77;14.90;;;14.00;77.00;;;;;;4999753;28;20289;-90
2023/01/01 04:34:46;;;;;;;25.47;13.57;;;14.00;77.20;;;;;;4999792;28;20165;-91
2023/01/01 04:37:12;;;;;;;24.47;15.27;;;13.80;77.70;;;;;;5017231;28;20181;-90
2023/01/01 04:39:38;;;;;;;16.37;12.63;;;14.00;77.10;;;;;;4999511;28;20173;-90
2023/01/01 04:42:03;;;;;;;15.40;12.03;;;13.90;77.90;;;;;;4999608;28;20246;-91
2023/01/01 04:44:29;;;;;;;14.17;12.13;;;14.00;77.60;;;;;;4999518;28;20220;-90
2023/01/01 04:46:54;;;;;;;20.77;12.20;;;13.90;77.70;;;;;;4999658;28;20184;-90
2023/01/01 04:49:20;;;;;;;21.97;12.13;;;13.80;78.00;;;;;;4999510;28;20182;-90
2023/01/01 04:51:46;;;;;;;15.00;11.10;;;13.90;77.70;;;;;;4999210;28;20219;-91
2023/01/01 04:54:11;;;;;;;14.50;10.97;;;13.90;77.60;;;;;;4999203;28;20186;-90
2023/01/01 04:56:37;;;;;;;19.37;10.77;;;13.90;77.50;;;;;;4999348;28;20242;-90
2023/01/01 04:59:02;;;;;;;18.63;12.10;;;13.80;78.10;;;;;;4999294;28;20610;-90
2023/01/01 05:01:29;;;;;;;13.97;11.43;;;13.90;77.40;;;;;;4999310;28;20575;-91
2023/01/01 05:03:55;;;;;;;14.23;10.00;;;13.90;77.00;;;;;;4999045;28;20177;-90
2023/01/01 05:06:21;;;;;;;17.50;11.63;;;13.80;77.80;;;;;;5016844;28;20177;-90
2023/01/01 05:08:49;;;;;;;14.67;10.83;;;13.90;77.10;;;;;;4999326;28;20177;-91
2023/01/01 05:11:20;;;;;;;13.60;11.23;;;13.80;77.50;;;;;;5000125;28;20255;-91
2023/01/01 05:13:49;;;;;;;21.73;10.53;;;13.90;77.10;;;;;;4998902;28;20227;-91
2023/01/01 05:16:18;;;;;;;16.03;11.33;;;14.00;76.70;;;;;;4999306;28;20200;-91
2023/01/01 05:18:44;;;;;;;18.17;11.10;;;13.90;76.90;;;;;;4999163;28;20642;-91
2023/01/01 05:21:12;;;;;;;13.93;11.80;;;14.00;75.90;;;;;;4999048;28;20639;-91
2023/01/01 05:23:39;;;;;;;19.20;11.93;;;14.00;77.20;;;;;;4999057;28;20556;-92
2023/01/01 05:26:26;;;;;;;16.17;11.33;;;13.80;77.50;;;;;;4998592;28;20184;-91
2023/01/01 05:28:51;;;;;;;20.50;11.33;;;13.80;77.30;;;;;;4999424;28;20170;-91
2023/01/01 05:31:22;;;;;;;13.63;10.40;;;13.80;77.60;;;;;;4998404;28;20198;-90
2023/01/01 05:33:48;;;;;;;20.30;11.13;;;13.90;77.00;;;;;;4998570;28;20166;-92
2023/01/01 05:36:17;;;;;;;18.20;10.73;;;14.00;76.20;;;;;;4998737;28;20173;-90
2023/01/01 05:38:42;;;;;;;18.17;12.23;;;14.00;76.40;;;;;;5016608;28;20227;-91
2023/01/01 05:41:11;;;;;;;18.97;11.77;;;13.90;76.60;;;;;;4999043;28;20185;-91
2023/01/01 05:43:36;;;;;;;14.83;10.57;;;13.80;76.90;;;;;;4998607;28;20177;-90
2023/01/01 05:46:09;;;;;;;17.60;11.07;;;13.80;76.70;;;;;;4999216;28;20248;-91
2023/01/01 05:48:35;;;;;;;14.00;11.10;;;13.80;77.30;;;;;;4998753;28;20631;-92
2023/01/01 05:51:03;;;;;;;19.87;11.43;;;13.70;77.30;;;;;;4998290;28;20346;-91
2023/01/01 05:53:29;;;;;;;18.03;11.30;;;13.80;76.40;;;;;;4998427;28;20201;-90
2023/01/01 05:55:55;;;;;;;14.03;11.70;;;13.80;76.70;;;;;;4998397;28;20177;-91
2023/01/01 05:58:21;;;;;;;13.83;11.63;;;13.70;77.00;;;;;;4999245;28;20177;-92
2023/01/01 06:00:47;;;;;;;13.17;11.10;;;13.60;77.70;;;;;;4998707;28;20185;-92
2023/01/01 06:03:12;;;;;;;11.07;10.03;;;13.60;77.40;;;;;;4998476;28;20220;-91
2023/01/01 06:05:38;;;;;;;16.30;10.93;;;13.70;76.70;;;;;;4998747;28;20184;-92
2023/01/01 06:08:03;;;;;;;21.07;11.00;;;13.60;76.80;;;;;;4998656;28;20273;-90
2023/01/01 06:10:29;;;;;;;14.40;10.57;;;13.60;76.80;;;;;;4998776;28;20208;-90
2023/01/01 06:52:14;;;;;;;8.43;7.43;;;13.20;79.40;;;;;;5431269;22;20244;-91
2023/01/01 06:55:21;;;;;;;12.87;9.00;;;13.30;78.60;;;;;;5045561;28;20180;-92
2023/01/01 06:58:43;;;;;;;11.20;8.70;;;13.30;78.20;;;;;;5035009;28;20180;-91
2023/01/01 07:05:05;;;;;;;18.77;8.43;;;13.40;76.70;;;;;;5050617;28;20208;-91
2023/01/01 07:14:37;;;;;;;13.90;9.53;;;13.40;76.20;;;;;;5033007;28;20207;-92
2023/01/01 07:18:05;;;;;;;10.90;8.60;;;13.60;75.30;;;;;;5049984;28;20187;-91
2023/01/01 07:20:58;;;;;;;12.83;9.43;;;13.40;76.10;;;;;;5007716;28;20188;-92
2023/01/01 07:23:57;;;;;;;12.73;9.47;;;13.50;75.60;;;;;;4976211;28;20190;-92
2023/01/01 07:30:47;;;;;;;10.50;9.13;;;13.30;75.60;;;;;;4973257;29;20242;-92
2023/01/01 08:45:44;;;;;;;9.77;8.73;;;13.10;73.00;;;;;;3862923;22;20327;-90
2023/01/01 08:48:09;;;;;;;10.70;8.73;;;13.10;72.80;;;;;;5038854;28;20173;-89
2023/01/01 08:50:35;;;;;;;9.70;8.70;;;13.20;72.60;;;;;;5044945;28;20197;-90
2023/01/01 08:53:02;;;;;;;14.43;8.90;;;13.10;72.70;;;;;;5048260;28;20242;-90
2023/01/01 08:55:28;;;;;;;14.50;8.40;;;13.20;72.80;;;;;;5039400;28;20179;-90
2023/01/01 08:57:53;;;;;;;14.73;9.40;;;13.00;73.00;;;;;;5042672;28;20182;-89
2023/01/01 09:05:36;;;;;;;9.40;8.70;;;13.10;72.40;;;;;;5404654;22;20217;-89
2023/01/01 09:08:04;;;;;;;9.63;8.80;;;13.10;73.10;;;;;;5022292;28;20177;-91
2023/01/01 09:28:51;;;;;;;8.80;8.00;;;13.00;72.20;;;;;;5264131;22;20247;-92
2023/01/01 10:36:27;;;;;;;11.33;8.60;;;13.00;72.50;;;;;;3000301;22;20251;-91
2023/01/01 10:39:06;;;;;;;10.30;8.47;;;13.00;73.30;;;;;;4999428;28;20554;-92
2023/01/01 10:46:49;;;;;;;9.83;8.77;;;12.80;73.70;;;;;;5025814;28;20219;-91
2023/01/01 10:49:21;;;;;;;11.27;8.83;;;12.80;73.50;;;;;;5014330;28;20162;-93
2023/01/01 10:51:59;;;;;;;10.30;9.30;;;12.90;73.10;;;;;;5007456;28;20267;-91
2023/01/01 10:54:43;;;;;;;16.60;8.53;;;12.90;73.30;;;;;;5010989;28;20164;-91
2023/01/01 10:58:03;;;;;;;9.37;8.47;;;13.00;73.10;;;;;;5016568;28;20257;-92
2023/01/01 11:40:13;;;;;;;11.97;9.07;;;12.90;71.60;;;;;;5022427;28;20263;-90
2023/01/01 11:42:46;;;;;;;12.10;9.50;;;12.90;72.00;;;;;;5002056;28;20311;-91
2023/01/01 11:45:40;;;;;;;10.80;9.73;;;13.00;70.60;;;;;;5010017;28;20166;-91
2023/01/01 11:48:22;;;;;;;13.13;9.40;;;12.80;70.80;;;;;;5001912;28;20173;-92
2023/01/01 11:51:07;;;;;;;16.10;9.20;;;12.80;72.50;;;;;;5006741;28;20205;-92
2023/01/01 11:56:14;;;;;;;9.97;8.77;;;12.90;70.80;;;;;;5019205;28;20667;-90
2023/01/01 11:59:14;;;;;;;10.57;8.87;;;12.80;71.90;;;;;;5022792;28;20178;-92
2023/01/01 12:01:58;;;;;;;12.77;9.37;;;12.80;72.40;;;;;;5003423;28;20190;-91
2023/01/01 12:04:30;;;;;;;16.03;9.30;;;12.80;72.50;;;;;;5003551;28;20216;-92
2023/01/01 12:07:38;;;;;;;16.50;9.50;;;12.90;72.10;;;;;;4999859;28;20184;-91
2023/01/01 12:10:22;;;;;;;14.53;9.77;;;13.00;73.00;;;;;;5003135;28;20181;-92
2023/01/01 12:13:10;;;;;;;12.63;10.10;;;13.20;70.20;;;;;;5001476;28;20201;-92
2023/01/01 12:19:23;;;;;;;13.57;10.03;;;13.30;69.80;;;;;;5019243;28;20173;-91
2023/01/01 12:21:56;;;;;;;17.63;10.17;;;13.30;69.80;;;;;;5018168;28;20209;-91
2023/01/01 12:24:43;;;;;;;14.80;9.70;;;13.20;70.40;;;;;;5003121;28;20177;-92
2023/01/01 12:27:40;;;;;;;14.23;10.60;;;13.10;71.20;;;;;;4998925;28;20178;-91
2023/01/01 12:30:14;;;;;;;11.93;9.97;;;13.10;70.60;;;;;;5000672;28;20173;-91
2023/01/01 12:32:58;;;;;;;14.33;10.23;;;13.20;69.20;;;;;;5002201;28;20204;-91
2023/01/01 12:35:38;;;;;;;15.23;10.77;;;13.20;71.30;;;;;;4999725;28;20169;-93
2023/01/01 12:38:33;;;;;;;13.53;10.90;;;13.20;70.10;;;;;;4997738;28;20165;-92
2023/01/01 12:41:33;;;;;;;11.53;10.10;;;13.20;70.10;;;;;;5005451;28;20193;-92
2023/01/01 12:44:07;;;;;;;14.13;10.00;;;13.10;69.90;;;;;;5004206;28;20288;-92
2023/01/01 12:46:58;;;;;;;11.77;9.40;;;12.90;69.30;;;;;;5002797;28;20180;-90
2023/01/01 12:49:53;;;;;;;13.07;9.70;;;12.80;69.90;;;;;;4999372;28;20186;-91
2023/01/01 12:52:20;;;;;;;14.07;9.90;;;12.90;69.30;;;;;;4999620;28;20205;-91
2023/01/01 12:55:16;;;;;;;15.57;9.40;;;12.90;69.90;;;;;;5002238;28;20339;-93
2023/01/01 12:57:50;;;;;;;11.10;9.10;;;12.80;70.00;;;;;;5001121;28;20205;-92
2023/01/01 13:00:18;;;;;;;15.40;8.80;;;12.70;70.20;;;;;;5003415;28;20240;-93
2023/01/01 13:02:47;;;;;;;18.37;9.80;;;12.80;70.90;;;;;;5020897;28;20233;-92
2023/01/01 13:05:36;;;;;;;13.70;9.27;;;12.60;72.50;;;;;;5002864;28;20197;-92
2023/01/01 13:08:04;;;;;;;14.73;9.67;;;12.50;71.70;;;;;;5017031;28;20192;-92
2023/01/01 13:10:37;;;;;;;13.50;9.40;;;12.50;71.90;;;;;;5000547;28;20219;-92
2023/01/01 13:13:04;;;;;;;15.53;9.27;;;12.60;71.60;;;;;;5001675;28;20284;-93
2023/01/01 13:15:42;;;;;;;12.13;9.00;;;12.60;72.40;;;;;;5002612;28;20184;-91
2023/01/01 13:18:22;;;;;;;15.70;9.50;;;12.50;72.90;;;;;;5002575;28;20269;-92
2023/01/01 13:21:13;;;;;;;14.20;9.10;;;12.40;72.50;;;;;;5001925;28;20180;-92
2023/01/01 13:23:40;;;;;;;16.33;9.30;;;12.30;72.80;;;;;;5002278;28;20208;-91
2023/01/01 13:26:18;;;;;;;16.07;9.43;;;12.20;73.70;;;;;;5017167;28;20209;-92
2023/01/01 13:28:59;;;;;;;17.77;8.90;;;12.20;73.30;;;;;;5002222;28;20185;-91
2023/01/01 13:31:40;;;;;;;14.87;8.57;;;12.00;74.10;;;;;;5002979;28;20200;-93
2023/01/01 13:34:36;;;;;;;12.47;8.97;;;12.10;73.60;;;;;;5005179;28;20175;-92
2023/01/01 13:37:14;;;;;;;11.67;8.60;;;12.20;72.80;;;;;;5003708;28;20185;-91
2023/01/01 13:40:00;;;;;;;15.87;8.77;;;12.10;73.40;;;;;;5002223;28;20681;-92
2023/01/01 13:42:43;;;;;;;15.57;7.93;;;12.10;73.50;;;;;;5001137;28;20237;-91
2023/01/01 13:45:16;;;;;;;11.97;8.33;;;12.00;73.90;;;;;;5004266;28;20234;-90
2023/01/01 13:48:06;;;;;;;10.97;8.30;;;11.80;74.70;;;;;;5024691;28;20177;-92
2023/01/01 13:50:58;;;;;;;12.63;8.00;;;11.80;74.80;;;;;;5008728;28;20204;-91
2023/01/01 13:53:32;;;;;;;13.00;8.03;;;11.80;74.70;;;;;;4996414;28;20275;-92
2023/01/01 13:56:29;;;;;;;13.23;8.73;;;11.70;75.10;;;;;;4999775;28;20646;-92
2023/01/01 13:59:22;;;;;;;15.17;8.70;;;11.70;75.30;;;;;;4999606;28;20192;-92
2023/01/01 14:01:56;;;;;;;16.37;7.60;;;11.70;75.00;;;;;;4997997;28;20201;-91
2023/01/01 14:04:52;;;;;;;10.80;7.40;;;11.50;75.60;;;;;;4998902;28;20176;-92
2023/01/01 14:07:30;;;;;;;13.43;7.50;;;11.70;74.80;;;;;;4998549;28;20550;-91
2023/01/01 14:10:21;;;;;;;12.03;7.60;;;11.50;75.80;;;;;;4998277;28;20181;-92
2023/01/01 14:12:47;;;;;;;11.07;8.17;;;11.50;75.30;;;;;;4997996;28;20667;-92
2023/01/01 14:15:30;;;;;;;20.03;8.30;;;11.40;75.70;;;;;;4997297;28;20265;-91
2023/01/01 14:17:59;;;;;;;18.97;7.40;;;11.40;75.70;;;;;;4997420;28;20292;-92
2023/01/01 14:20:49;;;;;;;11.50;7.20;;;11.40;76.20;;;;;;4997521;28;20192;-91
2023/01/01 14:23:22;;;;;;;13.77;6.70;;;11.40;75.70;;;;;;4997431;28;20205;-91
2023/01/01 14:25:48;;;;;;;12.70;7.37;;;11.20;76.50;;;;;;4999807;28;20212;-93
2023/01/01 14:28:40;;;;;;;9.63;7.13;;;11.30;76.60;;;;;;5027445;28;20181;-91
2023/01/01 14:31:11;;;;;;;12.73;7.30;;;11.30;75.70;;;;;;4975918;28;20221;-92
2023/01/01 14:33:37;;;;;;;15.40;6.90;;;11.30;76.00;;;;;;5009254;28;20204;-92
2023/01/01 14:36:05;;;;;;;12.43;7.10;;;11.30;76.20;;;;;;5004027;28;20624;-91
2023/01/01 14:38:33;;;;;;;21.83;7.83;;;11.30;76.40;;;;;;5005363;28;20264;-91
2023/01/01 14:41:30;;;;;;;18.70;7.20;;;11.30;75.60;;;;;;5000592;28;20182;-91
2023/01/01 14:44:01;;;;;;;12.60;7.07;;;11.20;76.30;;;;;;4996731;28;20280;-92
2023/01/01 14:46:30;;;;;;;17.10;7.83;;;11.20;76.30;;;;;;5000077;28;20256;-92
2023/01/01 14:49:00;;;;;;;17.10;7.23;;;11.20;76.90;;;;;;4998398;28;20185;-92
2023/01/01 14:51:30;;;;;;;10.87;7.20;;;11.00;77.40;;;;;;4996951;28;20201;-92
2023/01/01 14:53:59;;;;;;;9.37;6.60;;;11.10;77.30;;;;;;5001424;28;20188;-92
2023/01/01 14:56:31;;;;;;;10.83;6.87;;;11.00;77.50;;;;;;5000447;28;20208;-92
2023/01/01 14:59:08;;;;;;;17.07;7.10;;;10.90;77.70;;;;;;4997595;28;20255;-92
2023/01/01 15:01:34;;;;;;;17.53;6.97;;;10.90;78.10;;;;;;4998360;28;20271;-92
2023/01/01 15:04:02;;;;;;;13.83;7.70;;;10.90;78.00;;;;;;4996392;28;20208;-91
2023/01/01 15:06:32;;;;;;;13.57;6.43;;;11.00;77.60;;;;;;5000220;28;20185;-90
2023/01/01 15:09:01;;;;;;;13.60;7.03;;;11.10;77.50;;;;;;5001631;28;20192;-91
2023/01/01 15:11:27;;;;;;;18.60;7.83;;;10.90;78.20;;;;;;4999247;28;20201;-91
2023/01/01 15:14:01;;;;;;;14.73;7.40;;;10.90;78.20;;;;;;4998893;28;20174;-91
2023/01/01 15:16:33;;;;;;;15.73;7.50;;;10.80;78.60;;;;;;4999020;28;20192;-93
2023/01/01 15:19:16;;;;;;;16.03;7.10;;;10.80;78.60;;;;;;4997405;28;20165;-90
2023/01/01 15:21:41;;;;;;;14.07;7.17;;;10.80;78.30;;;;;;4997246;28;20173;-91
2023/01/01 15:24:10;;;;;;;22.17;7.30;;;10.90;78.00;;;;;;4996716;28;20251;-91
2023/01/01 15:26:51;;;;;;;9.13;6.67;;;10.90;78.30;;;;;;4997110;28;20177;-91
2023/01/01 15:29:33;;;;;;;14.70;7.20;;;10.80;78.20;;;;;;4996733;28;20704;-91
2023/01/01 15:32:02;;;;;;;13.77;7.03;;;10.80;78.40;;;;;;4996922;28;20209;-90
2023/01/01 15:34:34;;;;;;;14.03;7.13;;;10.80;78.10;;;;;;4996076;28;20178;-90
2023/01/01 15:37:22;;;;;;;13.87;6.30;;;10.70;78.70;;;;;;4996480;28;20177;-90
2023/01/01 15:39:59;;;;;;;13.50;6.00;;;10.60;79.40;;;;;;4996263;28;20223;-91
2023/01/01 15:42:34;;;;;;;11.77;6.20;;;10.60;79.40;;;;;;4996077;28;20201;-90
2023/01/01 15:45:12;;;;;;;12.83;5.67;;;10.50;79.90;;;;;;4996798;28;20653;-91
2023/01/01 15:47:37;;;;;;;13.27;6.30;;;10.50;79.80;;;;;;4996401;28;20223;-90
2023/01/01 15:50:28;;;;;;;13.43;6.60;;;10.50;79.70;;;;;;4996027;28;20181;-90
2023/01/01 15:52:57;;;;;;;11.77;6.40;;;10.70;79.10;;;;;;4996421;28;20201;-91
2023/01/01 15:55:28;;;;;;;12.93;6.40;;;10.80;79.00;;;;;;4996128;28;20247;-91
2023/01/01 15:57:54;;;;;;;12.47;6.30;;;10.60;79.60;;;;;;4996400;28;20169;-90
2023/01/01 16:00:22;;;;;;;12.07;5.80;;;10.60;79.90;;;;;;4996085;28;20187;-90
2023/01/01 16:02:55;;;;;;;13.33;6.10;;;10.60;79.90;;;;;;4996484;28;20208;-92
2023/01/01 16:05:23;;;;;;;15.50;6.40;;;10.70;79.50;;;;;;4996336;28;20209;-91
2023/01/01 16:08:03;;;;;;;9.87;5.80;;;10.70;79.70;;;;;;4996635;28;20272;-91
2023/01/01 16:10:30;;;;;;;12.63;5.67;;;10.70;79.60;;;;;;4996342;28;20228;-90
2023/01/01 16:12:57;;;;;;;15.87;6.80;;;10.80;79.50;;;;;;4996000;28;20721;-91
2023/01/01 16:15:24;;;;;;;13.70;6.63;;;10.70;79.50;;;;;;4999830;28;20264;-91
2023/01/01 16:17:50;;;;;;;14.50;6.10;;;10.70;79.80;;;;;;5002348;28;20174;-92
2023/01/01 16:20:17;;;;;;;10.83;6.30;;;10.90;79.10;;;;;;5001029;28;20662;-91
2023/01/01 16:22:43;;;;;;;14.83;6.37;;;10.80;79.70;;;;;;5017320;28;20201;-91
2023/01/01 16:25:21;;;;;;;14.27;6.77;;;10.80;79.70;;;;;;5000068;28;20670;-92
2023/01/01 16:27:47;;;;;;;15.60;6.03;;;10.80;80.00;;;;;;5006864;28;20181;-92
2023/01/01 16:30:14;;;;;;;11.10;5.87;;;10.70;80.20;;;;;;5000825;28;20554;-91
2023/01/01 16:32:40;;;;;;;12.03;6.40;;;10.60;80.60;;;;;;5000089;28;20197;-91
2023/01/01 16:35:11;;;;;;;19.70;6.90;;;10.70;80.30;;;;;;4999789;28;20181;-91
2023/01/01 16:37:36;;;;;;;9.17;5.70;;;10.70;80.60;;;;;;4999781;28;20223;-91
2023/01/01 16:40:03;;;;;;;17.30;5.93;;;10.50;80.90;;;;;;4999231;28;20182;-91
2023/01/01 16:42:28;;;;;;;13.13;6.50;;;10.50;81.40;;;;;;4999279;28;20206;-91
2023/01/01 16:44:56;;;;;;;15.53;6.17;;;10.40;81.50;;;;;;4999595;28;20166;-91
2023/01/01 16:47:22;;;;;;;10.67;5.70;;;10.40;81.60;;;;;;4999327;28;20208;-91
2023/01/01 16:49:47;;;;;;;13.33;6.03;;;10.30;82.10;;;;;;4999825;28;20208;-90
2023/01/01 16:52:13;;;;;;;16.70;6.23;;;10.20;82.30;;;;;;4999143;28;20213;-91
2023/01/01 16:54:39;;;;;;;15.10;6.50;;;10.10;82.90;;;;;;4999376;28;20189;-91
2023/01/01 16:57:05;;;;;;;30.03;7.07;;;10.10;83.00;;;;;;5017306;28;20235;-91
2023/01/01 16:59:58;;;;;;;15.20;6.77;;;10.20;83.00;;;;;;4999864;28;20173;-91
2023/01/01 17:02:27;;;;;;;12.40;6.83;;;10.30;82.60;;;;;;5000066;28;20197;-91
2023/01/01 17:04:53;;;;;;;14.00;6.20;;;10.40;82.00;;;;;;4999811;28;20176;-91
2023/01/01 17:07:19;;;;;;;13.30;6.33;;;10.40;82.20;;;;;;5000355;28;20173;-91
2023/01/01 17:09:45;;;;;;;17.53;6.07;;;10.40;82.40;;;;;;4999649;28;20656;-91
2023/01/01 17:12:10;;;;;;;17.43;7.13;;;10.50;82.60;;;;;;4998772;28;20205;-91
2023/01/01 17:14:36;;;;;;;13.33;5.33;;;10.40;82.60;;;;;;4999671;28;20183;-92
2023/01/01 17:17:02;;;;;;;17.23;7.27;;;10.30;83.10;;;;;;4998955;28;20196;-91
2023/01/01 17:19:27;;;;;;;14.17;5.50;;;10.30;83.20;;;;;;4998929;28;20256;-91
2023/01/01 17:21:53;;;;;;;14.17;5.83;;;10.30;83.40;;;;;;4999434;28;20569;-92
2023/01/01 17:24:19;;;;;;;12.30;6.00;;;10.20;83.50;;;;;;5001361;28;20529;-92
2023/01/01 17:26:49;;;;;;;18.63;6.00;;;10.10;84.00;;;;;;4998648;28;20273;-91
2023/01/01 17:29:14;;;;;;;14.33;5.60;;;10.00;84.30;;;;;;4999496;28;20182;-92
2023/01/01 17:31:40;;;;;;;15.57;6.93;;;10.00;84.70;;;;;;5002282;28;20431;-91
2023/01/01 17:34:05;;;;;;;21.70;5.67;;;9.90;85.20;;;;;;5000329;28;20213;-91
2023/01/01 17:36:31;;;;;;;14.47;5.80;;;9.90;85.40;;;;;;4999492;28;20174;-91
2023/01/01 17:38:57;;;;;;;25.30;6.50;;;9.90;85.50;;;;;;5001172;28;20221;-91
2023/01/01 17:41:23;;;;;;;13.80;5.80;;;9.90;85.50;;;;;;4998766;28;20555;-91
2023/01/01 17:43:50;;;;;;;11.27;6.13;;;9.90;85.60;;;;;;5000195;28;20201;-91
2023/01/01 17:46:21;;;;;;;12.47;5.60;;;10.00;85.60;;;;;;4999231;28;20554;-92
2023/01/01 17:48:47;;;;;;;10.33;5.10;;;10.00;85.50;;;;;;4998231;28;20184;-91
2023/01/01 17:51:14;;;;;;;13.17;5.07;;;10.20;85.30;;;;;;4998834;28;20194;-91
2023/01/01 17:53:40;;;;;;;15.17;5.27;;;10.20;85.30;;;;;;4998250;28;20193;-91